createdAt,value
2019-05-01T00:02:58.366Z,27.16
2019-05-01T00:08:05.965Z,27.28
2019-05-01T00:13:13.661Z,27.63
2019-05-01T00:18:21.273Z,23.11
2019-05-01T00:23:28.934Z,22.72
2019-05-01T00:28:36.549Z,23.00
2019-05-01T00:33:44.206Z,24.00
2019-05-01T00:38:51.794Z,29.46
2019-05-01T00:43:59.459Z,22.79
2019-05-01T00:49:07.097Z,23.34
2019-05-01T00:54:14.783Z,24.03
2019-05-01T00:59:22.408Z,25.73
2019-05-01T01:04:30.091Z,25.08
2019-05-01T01:09:37.737Z,31.02
2019-05-01T01:14:45.415Z,25.53
2019-05-01T01:19:53.049Z,30.17
2019-05-01T01:25:00.730Z,28.31
2019-05-01T01:30:08.355Z,25.21
2019-05-01T01:35:16.007Z,24.91
2019-05-01T01:40:23.608Z,25.97
2019-05-01T01:45:31.293Z,27.18
2019-05-01T01:50:38.912Z,34.93
2019-05-01T01:55:46.549Z,29.48
2019-05-01T02:00:54.162Z,29.63
2019-05-01T02:06:01.801Z,29.86
2019-05-01T02:11:09.399Z,29.70
2019-05-01T02:16:17.090Z,30.86
2019-05-01T02:21:24.683Z,30.59
2019-05-01T02:26:32.353Z,30.10
2019-05-01T02:31:39.958Z,29.50
2019-05-01T02:36:47.602Z,29.42
2019-05-01T02:41:55.175Z,35.03
2019-05-01T02:47:02.851Z,33.40
2019-05-01T02:52:10.498Z,30.00
2019-05-01T02:57:18.197Z,29.19
2019-05-01T03:02:25.821Z,31.20
2019-05-01T03:07:33.471Z,33.71
2019-05-01T03:12:41.052Z,32.14
2019-05-01T03:17:48.706Z,31.11
2019-05-01T03:22:56.306Z,29.14
2019-05-01T03:28:03.973Z,30.30
2019-05-01T03:33:11.573Z,38.44
2019-05-01T03:38:19.217Z,33.66
2019-05-01T03:43:26.818Z,32.57
2019-05-01T03:48:34.478Z,33.43
2019-05-01T03:53:42.087Z,34.27
2019-05-01T03:58:49.721Z,39.74
2019-05-01T04:03:57.304Z,39.67
2019-05-01T04:09:04.976Z,42.23
2019-05-01T04:14:12.610Z,52.87
2019-05-01T04:19:20.293Z,53.38
2019-05-01T04:24:27.884Z,51.85
2019-05-01T04:29:35.559Z,43.83
2019-05-01T04:34:43.138Z,44.89
2019-05-01T04:39:50.789Z,41.28
2019-05-01T04:44:58.423Z,42.54
2019-05-01T04:50:06.056Z,48.60
2019-05-01T04:55:13.634Z,42.38
2019-05-01T05:00:21.312Z,44.11
2019-05-01T05:05:28.921Z,42.75
2019-05-01T05:10:36.627Z,41.45
2019-05-01T05:15:44.169Z,43.59
2019-05-01T05:20:51.818Z,43.55
2019-05-01T05:25:59.429Z,44.17
2019-05-01T05:31:07.059Z,44.42
2019-05-01T05:36:14.658Z,42.61
2019-05-01T05:41:22.334Z,41.13
2019-05-01T05:46:29.919Z,40.47
2019-05-01T05:51:37.565Z,49.65
2019-05-01T05:56:45.188Z,39.71
2019-05-01T06:01:52.865Z,40.72
2019-05-01T06:07:00.487Z,49.11
2019-05-01T06:12:09.045Z,51.59
2019-05-01T06:17:15.433Z,37.05
2019-05-01T06:22:23.124Z,37.12
2019-05-01T06:27:30.726Z,39.31
2019-05-01T06:32:39.864Z,36.28
2019-05-01T06:37:45.506Z,46.75
2019-05-01T06:42:53.192Z,42.90
2019-05-01T06:48:00.799Z,37.28
2019-05-01T06:53:08.453Z,35.94
2019-05-01T06:58:20.351Z,35.03
2019-05-01T07:03:23.330Z,43.20
2019-05-01T07:08:34.331Z,35.45
2019-05-01T07:13:40.019Z,41.19
2019-05-01T07:18:45.336Z,34.01
2019-05-01T07:23:53.406Z,35.86
2019-05-01T07:29:00.145Z,35.83
2019-05-01T07:34:16.272Z,36.88
2019-05-01T07:39:15.893Z,39.22
2019-05-01T07:44:22.196Z,48.26
2019-05-01T07:49:29.783Z,45.65
2019-05-01T07:54:42.086Z,51.33
2019-05-01T07:59:44.548Z,51.38
2019-05-01T08:04:52.327Z,47.17
2019-05-01T08:09:59.977Z,44.87
2019-05-01T08:15:07.665Z,44.63
2019-05-01T08:20:16.759Z,44.48
2019-05-01T08:25:22.443Z,40.09
2019-05-01T08:30:30.048Z,41.71
2019-05-01T08:35:37.748Z,40.99
2019-05-01T08:40:45.307Z,40.41
2019-05-01T08:45:53.008Z,41.30
2019-05-01T08:51:00.596Z,48.21
2019-05-01T08:56:09.807Z,39.20
2019-05-01T09:01:16.356Z,38.54
2019-05-01T09:06:34.294Z,36.82
2019-05-01T09:11:31.721Z,36.61
2019-05-01T09:16:36.893Z,35.72
2019-05-01T09:21:44.520Z,36.38
2019-05-01T09:26:52.159Z,36.74
2019-05-01T09:31:59.778Z,43.91
2019-05-01T09:37:07.421Z,44.38
2019-05-01T09:42:22.886Z,36.65
2019-05-01T09:47:22.237Z,35.46
2019-05-01T09:52:29.824Z,34.53
2019-05-01T09:57:41.487Z,32.08
2019-05-01T10:02:44.636Z,33.13
2019-05-01T10:07:52.285Z,32.29
2019-05-01T10:12:59.898Z,32.38
2019-05-01T10:18:07.831Z,33.92
2019-05-01T10:23:15.511Z,36.58
2019-05-01T10:28:23.277Z,36.76
2019-05-01T10:33:32.677Z,44.63
2019-05-01T10:38:39.819Z,48.37
2019-05-01T10:43:46.084Z,42.74
2019-05-01T10:48:55.791Z,44.69
2019-05-01T10:54:01.230Z,52.01
2019-05-01T10:59:09.063Z,53.38
2019-05-01T11:04:16.700Z,47.98
2019-05-01T11:09:24.414Z,48.48
2019-05-01T11:14:32.242Z,48.08
2019-05-01T11:19:39.930Z,48.45
2019-05-01T11:24:47.628Z,48.09
2019-05-01T11:29:55.320Z,49.06
2019-05-01T11:35:02.927Z,57.61
2019-05-01T11:40:10.687Z,58.74
2019-05-01T11:45:18.308Z,52.74
2019-05-01T11:50:25.970Z,52.27
2019-05-01T11:55:33.626Z,60.80
2019-05-01T12:00:41.313Z,55.59
2019-05-01T12:05:48.923Z,54.81
2019-05-01T12:10:56.583Z,55.13
2019-05-01T12:16:04.185Z,55.71
2019-05-01T12:21:11.882Z,55.60
2019-05-01T12:26:19.511Z,56.39
2019-05-01T12:31:27.187Z,56.46
2019-05-01T12:36:36.348Z,57.17
2019-05-01T12:41:42.197Z,57.30
2019-05-01T12:46:49.803Z,57.21
2019-05-01T12:52:09.767Z,57.54
2019-05-01T12:57:04.591Z,57.44
2019-05-01T13:02:12.282Z,57.17
2019-05-01T13:07:19.881Z,58.91
2019-05-01T13:12:27.606Z,59.95
2019-05-01T13:17:35.262Z,59.05
2019-05-01T13:22:42.941Z,66.04
2019-05-01T13:27:50.559Z,66.54
2019-05-01T13:32:58.223Z,65.70
2019-05-01T13:38:05.826Z,56.53
2019-05-01T13:43:13.497Z,58.18
2019-05-01T13:48:21.103Z,56.87
2019-05-01T13:53:28.788Z,59.04
2019-05-01T13:58:36.409Z,58.86
2019-05-01T14:03:44.143Z,56.05
2019-05-01T14:08:51.753Z,56.36
2019-05-01T14:13:59.397Z,62.93
2019-05-01T14:19:07.015Z,55.68
2019-05-01T14:24:14.660Z,53.53
2019-05-01T14:29:22.273Z,52.84
2019-05-01T14:34:30.046Z,50.13
2019-05-01T14:39:37.639Z,48.17
2019-05-01T14:44:45.347Z,50.96
2019-05-01T14:49:52.938Z,49.30
2019-05-01T14:55:00.618Z,42.99
2019-05-01T15:00:08.217Z,45.05
2019-05-01T15:05:16.001Z,41.76
2019-05-01T15:10:23.603Z,41.02
2019-05-01T15:15:31.279Z,43.56
2019-05-01T15:20:38.890Z,40.15
2019-05-01T15:25:46.528Z,39.14
2019-05-01T15:30:54.128Z,42.23
2019-05-01T15:36:01.815Z,37.32
2019-05-01T15:41:09.440Z,39.95
2019-05-01T15:46:17.129Z,39.77
2019-05-01T15:51:24.729Z,40.44
2019-05-01T15:56:32.415Z,43.38
2019-05-01T16:01:40.033Z,46.31
2019-05-01T16:06:47.680Z,42.09
2019-05-01T16:12:03.106Z,40.85
2019-05-01T16:17:00.846Z,39.46
2019-05-01T16:22:08.415Z,40.36
2019-05-01T16:27:16.060Z,39.87
2019-05-01T16:32:23.647Z,40.29
2019-05-01T16:37:31.279Z,39.90
2019-05-01T16:42:38.885Z,38.30
2019-05-01T16:47:46.516Z,38.92
2019-05-01T16:52:54.132Z,39.12
2019-05-01T16:58:01.923Z,43.51
2019-05-01T17:03:09.534Z,37.97
2019-05-01T17:08:17.207Z,38.38
2019-05-01T17:13:24.834Z,38.41
2019-05-01T17:18:32.501Z,37.58
2019-05-01T17:23:40.144Z,39.30
2019-05-01T17:28:47.875Z,41.72
2019-05-01T17:33:56.763Z,41.96
2019-05-01T17:39:03.051Z,38.62
2019-05-01T17:44:10.858Z,37.92
2019-05-01T17:49:18.786Z,37.71
2019-05-01T17:54:26.525Z,36.55
2019-05-01T17:59:34.360Z,36.30
2019-05-01T18:04:42.227Z,39.57
2019-05-01T18:09:51.323Z,34.81
2019-05-01T18:14:57.661Z,35.83
2019-05-01T18:20:05.686Z,34.22
2019-05-01T18:25:13.604Z,33.08
2019-05-01T18:30:21.946Z,31.89
2019-05-01T18:35:29.548Z,29.99
2019-05-01T18:40:37.586Z,28.88
2019-05-01T18:45:45.598Z,32.11
2019-05-01T18:50:55.004Z,29.60
2019-05-01T18:56:05.160Z,29.99
2019-05-01T19:01:09.543Z,30.79
2019-05-01T19:06:16.036Z,30.10
2019-05-01T19:11:24.338Z,29.99
2019-05-01T19:16:32.384Z,31.33
2019-05-01T19:21:41.715Z,30.47
2019-05-01T19:26:48.130Z,31.11
2019-05-01T19:31:56.557Z,30.86
2019-05-01T19:37:04.993Z,31.84
2019-05-01T19:42:13.253Z,31.76
2019-05-01T19:47:21.682Z,31.97
2019-05-01T19:52:32.334Z,31.43
2019-05-01T19:57:37.456Z,31.95
2019-05-01T20:02:46.725Z,31.59
2019-05-01T20:07:56.072Z,36.94
2019-05-01T20:13:07.087Z,32.16
2019-05-01T20:18:10.374Z,36.80
2019-05-01T20:23:18.395Z,33.92
2019-05-01T20:28:28.224Z,34.36
2019-05-01T20:33:38.401Z,34.16
2019-05-01T20:38:41.547Z,33.37
2019-05-01T20:43:49.552Z,38.65
2019-05-01T20:49:01.399Z,32.93
2019-05-01T20:54:05.082Z,32.99
2019-05-01T20:59:13.111Z,32.69
2019-05-01T21:04:20.805Z,36.16
2019-05-01T21:09:28.403Z,32.59
2019-05-01T21:14:36.080Z,31.42
2019-05-01T21:19:44.115Z,31.12
2019-05-01T21:24:50.886Z,30.59
2019-05-01T21:29:58.490Z,30.23
2019-05-01T21:35:06.123Z,27.80
2019-05-01T21:40:13.740Z,27.55
2019-05-01T21:45:22.990Z,25.61
2019-05-01T21:50:28.557Z,24.10
2019-05-01T21:55:36.206Z,25.07
2019-05-01T22:00:43.800Z,26.24
2019-05-01T22:05:51.436Z,25.70
2019-05-01T22:11:01.894Z,26.96
2019-05-01T22:16:06.242Z,26.37
2019-05-01T22:21:13.851Z,29.21
2019-05-01T22:26:21.517Z,27.04
2019-05-01T22:31:29.125Z,25.28
2019-05-01T22:36:36.777Z,25.38
2019-05-01T22:41:44.385Z,24.92
2019-05-01T22:46:51.999Z,28.76
2019-05-01T22:51:59.587Z,24.70
2019-05-01T22:57:07.255Z,24.56
2019-05-01T23:02:14.861Z,24.86
2019-05-01T23:07:22.538Z,24.02
2019-05-01T23:12:30.137Z,24.23
2019-05-01T23:17:39.495Z,23.35
2019-05-01T23:22:44.935Z,23.23
2019-05-01T23:27:52.563Z,23.26
2019-05-01T23:33:00.150Z,23.27
2019-05-01T23:38:07.819Z,22.46
2019-05-01T23:43:15.439Z,23.61
2019-05-01T23:48:23.130Z,27.75
2019-05-01T23:53:30.748Z,24.16
2019-05-01T23:58:38.420Z,27.97
